sensor_id;sensor_type;location;lat;lon;timestamp;P1;durP1;ratioP1;P2;durP2;ratioP2
69310;SDS011;56430;48.154;16.458;2022-07-26T00:01:59;12.20;;;6.20;;
69310;SDS011;56430;48.154;16.458;2022-07-26T00:04:26;10.15;;;6.20;;
69310;SDS011;56430;48.154;16.458;2022-07-26T00:06:53;10.07;;;6.50;;
69310;SDS011;56430;48.154;16.458;2022-07-26T00:09:21;10.10;;;6.30;;
69310;SDS011;56430;48.154;16.458;2022-07-26T00:14:36;11.52;;;5.97;;
69310;SDS011;56430;48.154;16.458;2022-07-26T00:17:03;10.02;;;6.13;;
69310;SDS011;56430;48.154;16.458;2022-07-26T00:19:30;16.05;;;6.57;;
69310;SDS011;56430;48.154;16.458;2022-07-26T00:21:57;10.00;;;6.90;;
69310;SDS011;56430;48.154;16.458;2022-07-26T00:24:42;10.47;;;6.73;;
69310;SDS011;56430;48.154;16.458;2022-07-26T00:27:09;10.77;;;6.97;;
69310;SDS011;56430;48.154;16.458;2022-07-26T00:29:36;9.35;;;6.60;;
69310;SDS011;56430;48.154;16.458;2022-07-26T00:32:03;11.23;;;6.47;;
69310;SDS011;56430;48.154;16.458;2022-07-26T00:34:30;10.38;;;6.80;;
69310;SDS011;56430;48.154;16.458;2022-07-26T00:37:00;10.00;;;6.82;;
69310;SDS011;56430;48.154;16.458;2022-07-26T00:39:26;10.93;;;6.32;;
69310;SDS011;56430;48.154;16.458;2022-07-26T00:41:55;10.07;;;6.70;;
69310;SDS011;56430;48.154;16.458;2022-07-26T00:44:22;12.10;;;6.85;;
69310;SDS011;56430;48.154;16.458;2022-07-26T00:46:49;9.55;;;6.40;;
69310;SDS011;56430;48.154;16.458;2022-07-26T00:49:15;9.37;;;6.67;;
69310;SDS011;56430;48.154;16.458;2022-07-26T00:51:42;8.53;;;6.43;;
69310;SDS011;56430;48.154;16.458;2022-07-26T00:54:09;9.93;;;6.00;;
69310;SDS011;56430;48.154;16.458;2022-07-26T00:56:36;10.07;;;6.50;;
69310;SDS011;56430;48.154;16.458;2022-07-26T00:59:04;11.73;;;6.90;;
69310;SDS011;56430;48.154;16.458;2022-07-26T01:01:33;11.07;;;6.57;;
69310;SDS011;56430;48.154;16.458;2022-07-26T01:04:00;10.75;;;6.55;;
69310;SDS011;56430;48.154;16.458;2022-07-26T01:06:27;10.32;;;7.00;;
69310;SDS011;56430;48.154;16.458;2022-07-26T01:08:54;12.88;;;7.47;;
69310;SDS011;56430;48.154;16.458;2022-07-26T01:11:21;11.93;;;6.38;;
69310;SDS011;56430;48.154;16.458;2022-07-26T01:13:48;21.83;;;6.70;;
69310;SDS011;56430;48.154;16.458;2022-07-26T01:16:16;11.60;;;5.83;;
69310;SDS011;56430;48.154;16.458;2022-07-26T01:18:43;15.23;;;5.40;;
69310;SDS011;56430;48.154;16.458;2022-07-26T01:21:10;15.48;;;5.35;;
69310;SDS011;56430;48.154;16.458;2022-07-26T01:23:39;151.88;;;12.88;;
69310;SDS011;56430;48.154;16.458;2022-07-26T01:26:07;31.55;;;5.75;;
69310;SDS011;56430;48.154;16.458;2022-07-26T01:28:34;37.22;;;5.72;;
69310;SDS011;56430;48.154;16.458;2022-07-26T01:31:02;31.50;;;4.32;;
69310;SDS011;56430;48.154;16.458;2022-07-26T01:33:29;18.58;;;3.50;;
69310;SDS011;56430;48.154;16.458;2022-07-26T01:35:56;19.92;;;4.28;;
69310;SDS011;56430;48.154;16.458;2022-07-26T01:38:23;17.27;;;3.60;;
69310;SDS011;56430;48.154;16.458;2022-07-26T01:40:52;14.53;;;4.03;;
69310;SDS011;56430;48.154;16.458;2022-07-26T01:43:18;16.17;;;4.07;;
69310;SDS011;56430;48.154;16.458;2022-07-26T01:45:45;19.13;;;3.90;;
69310;SDS011;56430;48.154;16.458;2022-07-26T01:48:12;17.52;;;3.85;;
69310;SDS011;56430;48.154;16.458;2022-07-26T01:50:42;20.45;;;4.18;;
69310;SDS011;56430;48.154;16.458;2022-07-26T01:53:08;9.73;;;2.78;;
69310;SDS011;56430;48.154;16.458;2022-07-26T01:55:35;22.98;;;3.92;;
69310;SDS011;56430;48.154;16.458;2022-07-26T01:58:04;9.88;;;3.30;;
69310;SDS011;56430;48.154;16.458;2022-07-26T02:00:31;9.07;;;3.13;;
69310;SDS011;56430;48.154;16.458;2022-07-26T02:02:58;23.77;;;3.83;;
69310;SDS011;56430;48.154;16.458;2022-07-26T02:05:24;6.77;;;2.30;;
69310;SDS011;56430;48.154;16.458;2022-07-26T02:07:51;15.10;;;3.20;;
69310;SDS011;56430;48.154;16.458;2022-07-26T02:10:18;10.02;;;2.40;;
69310;SDS011;56430;48.154;16.458;2022-07-26T02:12:45;5.32;;;2.78;;
69310;SDS011;56430;48.154;16.458;2022-07-26T02:15:14;10.05;;;2.80;;
69310;SDS011;56430;48.154;16.458;2022-07-26T02:17:40;10.60;;;2.33;;
69310;SDS011;56430;48.154;16.458;2022-07-26T02:20:08;7.57;;;2.55;;
69310;SDS011;56430;48.154;16.458;2022-07-26T02:22:35;6.15;;;2.47;;
69310;SDS011;56430;48.154;16.458;2022-07-26T02:25:01;10.32;;;2.63;;
69310;SDS011;56430;48.154;16.458;2022-07-26T02:27:28;5.13;;;2.80;;
69310;SDS011;56430;48.154;16.458;2022-07-26T02:29:55;5.93;;;2.03;;
69310;SDS011;56430;48.154;16.458;2022-07-26T02:32:23;7.05;;;2.15;;
69310;SDS011;56430;48.154;16.458;2022-07-26T02:34:50;7.65;;;2.60;;
69310;SDS011;56430;48.154;16.458;2022-07-26T02:37:17;6.15;;;2.38;;
69310;SDS011;56430;48.154;16.458;2022-07-26T02:39:44;5.22;;;2.53;;
69310;SDS011;56430;48.154;16.458;2022-07-26T02:42:10;5.78;;;2.50;;
69310;SDS011;56430;48.154;16.458;2022-07-26T02:44:37;4.63;;;2.13;;
69310;SDS011;56430;48.154;16.458;2022-07-26T02:47:05;6.22;;;2.58;;
69310;SDS011;56430;48.154;16.458;2022-07-26T02:49:34;6.57;;;2.63;;
69310;SDS011;56430;48.154;16.458;2022-07-26T02:52:00;4.70;;;2.00;;
69310;SDS011;56430;48.154;16.458;2022-07-26T02:54:27;5.67;;;2.40;;
69310;SDS011;56430;48.154;16.458;2022-07-26T02:56:57;6.38;;;2.15;;
69310;SDS011;56430;48.154;16.458;2022-07-26T02:59:24;3.22;;;1.90;;
69310;SDS011;56430;48.154;16.458;2022-07-26T03:01:50;8.73;;;2.38;;
69310;SDS011;56430;48.154;16.458;2022-07-26T03:04:17;5.68;;;2.00;;
69310;SDS011;56430;48.154;16.458;2022-07-26T03:06:45;4.53;;;1.70;;
69310;SDS011;56430;48.154;16.458;2022-07-26T03:09:12;4.35;;;1.80;;
69310;SDS011;56430;48.154;16.458;2022-07-26T03:11:39;5.93;;;1.77;;
69310;SDS011;56430;48.154;16.458;2022-07-26T03:14:06;4.72;;;1.75;;
69310;SDS011;56430;48.154;16.458;2022-07-26T03:16:33;4.90;;;2.00;;
69310;SDS011;56430;48.154;16.458;2022-07-26T03:19:00;4.20;;;1.83;;
69310;SDS011;56430;48.154;16.458;2022-07-26T03:21:26;5.50;;;1.95;;
69310;SDS011;56430;48.154;16.458;2022-07-26T03:23:55;4.65;;;1.90;;
69310;SDS011;56430;48.154;16.458;2022-07-26T03:26:21;4.43;;;2.08;;
69310;SDS011;56430;48.154;16.458;2022-07-26T03:28:48;5.30;;;1.95;;
69310;SDS011;56430;48.154;16.458;2022-07-26T03:31:15;4.63;;;1.88;;
69310;SDS011;56430;48.154;16.458;2022-07-26T03:33:42;5.03;;;2.15;;
69310;SDS011;56430;48.154;16.458;2022-07-26T03:36:09;4.35;;;1.70;;
69310;SDS011;56430;48.154;16.458;2022-07-26T03:38:36;4.00;;;1.95;;
69310;SDS011;56430;48.154;16.458;2022-07-26T03:41:04;3.23;;;1.70;;
69310;SDS011;56430;48.154;16.458;2022-07-26T03:43:31;5.57;;;1.90;;
69310;SDS011;56430;48.154;16.458;2022-07-26T03:45:58;3.13;;;1.63;;
69310;SDS011;56430;48.154;16.458;2022-07-26T03:48:25;4.32;;;1.77;;
69310;SDS011;56430;48.154;16.458;2022-07-26T03:50:52;4.50;;;1.90;;
69310;SDS011;56430;48.154;16.458;2022-07-26T03:53:18;4.65;;;1.83;;
69310;SDS011;56430;48.154;16.458;2022-07-26T03:55:45;4.65;;;1.73;;
69310;SDS011;56430;48.154;16.458;2022-07-26T03:58:30;3.65;;;1.60;;
69310;SDS011;56430;48.154;16.458;2022-07-26T04:00:57;3.75;;;2.13;;
69310;SDS011;56430;48.154;16.458;2022-07-26T04:03:24;6.15;;;2.00;;
69310;SDS011;56430;48.154;16.458;2022-07-26T04:05:57;3.77;;;1.70;;
69310;SDS011;56430;48.154;16.458;2022-07-26T04:08:24;4.97;;;2.30;;
69310;SDS011;56430;48.154;16.458;2022-07-26T04:10:51;3.80;;;2.00;;
69310;SDS011;56430;48.154;16.458;2022-07-26T04:13:18;5.00;;;2.63;;
69310;SDS011;56430;48.154;16.458;2022-07-26T04:15:46;3.65;;;1.80;;
69310;SDS011;56430;48.154;16.458;2022-07-26T04:18:13;3.90;;;2.05;;
69310;SDS011;56430;48.154;16.458;2022-07-26T04:20:40;4.97;;;2.08;;
69310;SDS011;56430;48.154;16.458;2022-07-26T04:23:07;3.70;;;1.77;;
69310;SDS011;56430;48.154;16.458;2022-07-26T04:25:34;4.03;;;1.83;;
69310;SDS011;56430;48.154;16.458;2022-07-26T04:28:01;3.85;;;1.80;;
69310;SDS011;56430;48.154;16.458;2022-07-26T04:30:28;3.80;;;1.60;;
69310;SDS011;56430;48.154;16.458;2022-07-26T04:32:56;4.07;;;1.90;;
69310;SDS011;56430;48.154;16.458;2022-07-26T04:35:23;3.17;;;1.60;;
69310;SDS011;56430;48.154;16.458;2022-07-26T04:37:50;4.72;;;2.15;;
69310;SDS011;56430;48.154;16.458;2022-07-26T04:40:18;4.00;;;1.80;;
69310;SDS011;56430;48.154;16.458;2022-07-26T04:42:45;3.58;;;1.73;;
69310;SDS011;56430;48.154;16.458;2022-07-26T04:45:12;3.92;;;1.90;;
69310;SDS011;56430;48.154;16.458;2022-07-26T04:47:39;4.07;;;2.00;;
69310;SDS011;56430;48.154;16.458;2022-07-26T04:50:08;4.63;;;1.92;;
69310;SDS011;56430;48.154;16.458;2022-07-26T04:52:35;3.53;;;1.80;;
69310;SDS011;56430;48.154;16.458;2022-07-26T04:55:02;4.23;;;2.03;;
69310;SDS011;56430;48.154;16.458;2022-07-26T04:57:29;4.32;;;1.92;;
69310;SDS011;56430;48.154;16.458;2022-07-26T04:59:56;4.53;;;2.00;;
69310;SDS011;56430;48.154;16.458;2022-07-26T05:02:22;5.32;;;2.25;;
69310;SDS011;56430;48.154;16.458;2022-07-26T05:04:49;3.85;;;1.90;;
69310;SDS011;56430;48.154;16.458;2022-07-26T05:07:17;4.65;;;2.30;;
69310;SDS011;56430;48.154;16.458;2022-07-26T05:09:44;5.20;;;2.10;;
69310;SDS011;56430;48.154;16.458;2022-07-26T05:12:13;4.28;;;2.17;;
69310;SDS011;56430;48.154;16.458;2022-07-26T05:14:40;5.03;;;1.73;;
69310;SDS011;56430;48.154;16.458;2022-07-26T05:17:08;5.57;;;2.20;;
69310;SDS011;56430;48.154;16.458;2022-07-26T05:19:35;5.15;;;1.90;;
69310;SDS011;56430;48.154;16.458;2022-07-26T05:22:02;4.20;;;2.10;;
69310;SDS011;56430;48.154;16.458;2022-07-26T05:24:30;4.75;;;2.10;;
69310;SDS011;56430;48.154;16.458;2022-07-26T05:26:57;3.28;;;1.75;;
69310;SDS011;56430;48.154;16.458;2022-07-26T05:29:24;4.30;;;2.05;;
69310;SDS011;56430;48.154;16.458;2022-07-26T05:31:51;5.47;;;2.08;;
69310;SDS011;56430;48.154;16.458;2022-07-26T05:34:18;4.05;;;1.92;;
69310;SDS011;56430;48.154;16.458;2022-07-26T05:36:44;3.45;;;1.83;;
69310;SDS011;56430;48.154;16.458;2022-07-26T05:39:11;4.97;;;2.00;;
69310;SDS011;56430;48.154;16.458;2022-07-26T05:41:40;4.00;;;1.97;;
69310;SDS011;56430;48.154;16.458;2022-07-26T05:44:06;4.05;;;2.25;;
69310;SDS011;56430;48.154;16.458;2022-07-26T05:46:34;3.72;;;2.00;;
69310;SDS011;56430;48.154;16.458;2022-07-26T05:49:01;4.57;;;1.90;;
69310;SDS011;56430;48.154;16.458;2022-07-26T05:51:28;5.60;;;1.92;;
69310;SDS011;56430;48.154;16.458;2022-07-26T05:53:55;3.78;;;1.80;;
69310;SDS011;56430;48.154;16.458;2022-07-26T05:56:22;4.70;;;2.08;;
69310;SDS011;56430;48.154;16.458;2022-07-26T05:58:50;5.93;;;2.10;;
69310;SDS011;56430;48.154;16.458;2022-07-26T06:01:17;4.15;;;1.95;;
69310;SDS011;56430;48.154;16.458;2022-07-26T06:03:44;4.33;;;2.10;;
69310;SDS011;56430;48.154;16.458;2022-07-26T06:06:11;4.32;;;1.88;;
69310;SDS011;56430;48.154;16.458;2022-07-26T06:08:38;3.92;;;2.10;;
69310;SDS011;56430;48.154;16.458;2022-07-26T06:11:05;3.95;;;1.80;;
69310;SDS011;56430;48.154;16.458;2022-07-26T06:13:31;5.82;;;2.15;;
69310;SDS011;56430;48.154;16.458;2022-07-26T06:16:00;4.72;;;1.95;;
69310;SDS011;56430;48.154;16.458;2022-07-26T06:18:27;3.55;;;1.85;;
69310;SDS011;56430;48.154;16.458;2022-07-26T06:20:54;3.80;;;2.00;;
69310;SDS011;56430;48.154;16.458;2022-07-26T06:23:21;4.33;;;1.87;;
69310;SDS011;56430;48.154;16.458;2022-07-26T06:25:48;4.70;;;2.20;;
69310;SDS011;56430;48.154;16.458;2022-07-26T06:28:15;3.63;;;1.63;;
69310;SDS011;56430;48.154;16.458;2022-07-26T06:30:42;4.15;;;1.88;;
69310;SDS011;56430;48.154;16.458;2022-07-26T06:33:11;4.93;;;2.25;;
69310;SDS011;56430;48.154;16.458;2022-07-26T06:35:37;5.13;;;2.20;;
69310;SDS011;56430;48.154;16.458;2022-07-26T06:38:05;3.90;;;1.90;;
69310;SDS011;56430;48.154;16.458;2022-07-26T06:40:32;4.72;;;2.10;;
69310;SDS011;56430;48.154;16.458;2022-07-26T06:42:59;4.50;;;1.90;;
69310;SDS011;56430;48.154;16.458;2022-07-26T06:45:26;4.90;;;1.87;;
69310;SDS011;56430;48.154;16.458;2022-07-26T06:47:52;4.67;;;1.57;;
69310;SDS011;56430;48.154;16.458;2022-07-26T06:50:21;4.13;;;1.60;;
69310;SDS011;56430;48.154;16.458;2022-07-26T06:52:48;4.55;;;2.15;;
69310;SDS011;56430;48.154;16.458;2022-07-26T06:55:14;4.78;;;2.00;;
69310;SDS011;56430;48.154;16.458;2022-07-26T06:57:41;4.55;;;1.90;;
69310;SDS011;56430;48.154;16.458;2022-07-26T07:00:08;3.72;;;1.67;;
69310;SDS011;56430;48.154;16.458;2022-07-26T07:02:35;4.38;;;1.73;;
69310;SDS011;56430;48.154;16.458;2022-07-26T07:05:02;4.18;;;1.60;;
69310;SDS011;56430;48.154;16.458;2022-07-26T07:07:33;3.10;;;1.52;;
69310;SDS011;56430;48.154;16.458;2022-07-26T07:10:00;3.43;;;1.70;;
69310;SDS011;56430;48.154;16.458;2022-07-26T07:12:27;2.87;;;1.37;;
69310;SDS011;56430;48.154;16.458;2022-07-26T07:14:54;4.03;;;1.58;;
69310;SDS011;56430;48.154;16.458;2022-07-26T07:17:21;4.35;;;1.50;;
69310;SDS011;56430;48.154;16.458;2022-07-26T07:19:47;4.32;;;1.67;;
69310;SDS011;56430;48.154;16.458;2022-07-26T07:22:14;4.05;;;1.60;;
69310;SDS011;56430;48.154;16.458;2022-07-26T07:24:42;3.20;;;1.30;;
69310;SDS011;56430;48.154;16.458;2022-07-26T07:27:09;4.18;;;1.77;;
69310;SDS011;56430;48.154;16.458;2022-07-26T07:29:36;4.38;;;1.60;;
69310;SDS011;56430;48.154;16.458;2022-07-26T07:32:06;4.05;;;1.40;;
69310;SDS011;56430;48.154;16.458;2022-07-26T07:34:33;3.37;;;1.50;;
69310;SDS011;56430;48.154;16.458;2022-07-26T07:36:59;4.00;;;1.60;;
69310;SDS011;56430;48.154;16.458;2022-07-26T07:39:26;2.92;;;1.38;;
69310;SDS011;56430;48.154;16.458;2022-07-26T07:41:54;5.55;;;1.52;;
69310;SDS011;56430;48.154;16.458;2022-07-26T07:44:21;3.15;;;1.30;;
69310;SDS011;56430;48.154;16.458;2022-07-26T07:46:48;3.13;;;1.63;;
69310;SDS011;56430;48.154;16.458;2022-07-26T07:49:15;4.55;;;1.90;;
69310;SDS011;56430;48.154;16.458;2022-07-26T07:51:42;5.05;;;1.85;;
69310;SDS011;56430;48.154;16.458;2022-07-26T07:54:09;3.95;;;1.67;;
69310;SDS011;56430;48.154;16.458;2022-07-26T07:56:35;3.35;;;1.58;;
69310;SDS011;56430;48.154;16.458;2022-07-26T07:59:04;3.43;;;1.80;;
69310;SDS011;56430;48.154;16.458;2022-07-26T08:01:30;4.17;;;1.80;;
69310;SDS011;56430;48.154;16.458;2022-07-26T08:03:57;5.82;;;2.00;;
69310;SDS011;56430;48.154;16.458;2022-07-26T08:06:24;4.63;;;1.95;;
69310;SDS011;56430;48.154;16.458;2022-07-26T08:08:51;3.60;;;1.90;;
69310;SDS011;56430;48.154;16.458;2022-07-26T08:11:18;3.67;;;1.77;;
69310;SDS011;56430;48.154;16.458;2022-07-26T08:13:44;4.35;;;1.80;;
69310;SDS011;56430;48.154;16.458;2022-07-26T08:16:12;4.25;;;1.77;;
69310;SDS011;56430;48.154;16.458;2022-07-26T08:18:39;6.00;;;1.65;;
69310;SDS011;56430;48.154;16.458;2022-07-26T08:21:06;3.83;;;1.80;;
69310;SDS011;56430;48.154;16.458;2022-07-26T08:23:33;6.27;;;1.90;;
69310;SDS011;56430;48.154;16.458;2022-07-26T08:26:00;5.57;;;1.83;;
69310;SDS011;56430;48.154;16.458;2022-07-26T08:28:27;3.75;;;1.70;;
69310;SDS011;56430;48.154;16.458;2022-07-26T08:30:54;5.82;;;1.80;;
69310;SDS011;56430;48.154;16.458;2022-07-26T08:33:22;4.32;;;1.70;;
69310;SDS011;56430;48.154;16.458;2022-07-26T08:35:49;4.75;;;1.85;;
69310;SDS011;56430;48.154;16.458;2022-07-26T08:38:16;4.07;;;1.38;;
69310;SDS011;56430;48.154;16.458;2022-07-26T08:40:42;4.28;;;1.92;;
69310;SDS011;56430;48.154;16.458;2022-07-26T08:43:09;4.65;;;1.92;;
69310;SDS011;56430;48.154;16.458;2022-07-26T08:45:36;5.65;;;1.75;;
69310;SDS011;56430;48.154;16.458;2022-07-26T08:48:03;3.63;;;1.60;;
69310;SDS011;56430;48.154;16.458;2022-07-26T08:50:31;3.47;;;1.70;;
69310;SDS011;56430;48.154;16.458;2022-07-26T08:52:59;3.03;;;1.52;;
69310;SDS011;56430;48.154;16.458;2022-07-26T08:55:28;4.32;;;1.58;;
69310;SDS011;56430;48.154;16.458;2022-07-26T08:57:55;7.15;;;1.88;;
69310;SDS011;56430;48.154;16.458;2022-07-26T09:00:22;4.72;;;2.13;;
69310;SDS011;56430;48.154;16.458;2022-07-26T09:02:50;4.65;;;2.45;;
69310;SDS011;56430;48.154;16.458;2022-07-26T09:05:17;8.98;;;2.10;;
69310;SDS011;56430;48.154;16.458;2022-07-26T09:07:45;4.50;;;2.05;;
69310;SDS011;56430;48.154;16.458;2022-07-26T09:10:13;6.72;;;2.08;;
69310;SDS011;56430;48.154;16.458;2022-07-26T09:12:40;4.03;;;1.80;;
69310;SDS011;56430;48.154;16.458;2022-07-26T09:15:16;4.90;;;1.77;;
69310;SDS011;56430;48.154;16.458;2022-07-26T09:17:43;5.53;;;2.15;;
69310;SDS011;56430;48.154;16.458;2022-07-26T09:20:11;4.25;;;1.75;;
69310;SDS011;56430;48.154;16.458;2022-07-26T09:22:54;3.83;;;1.73;;
69310;SDS011;56430;48.154;16.458;2022-07-26T09:25:23;5.03;;;2.22;;
69310;SDS011;56430;48.154;16.458;2022-07-26T09:27:50;5.55;;;1.98;;
69310;SDS011;56430;48.154;16.458;2022-07-26T09:30:17;3.85;;;1.73;;
69310;SDS011;56430;48.154;16.458;2022-07-26T09:32:54;6.55;;;1.95;;
69310;SDS011;56430;48.154;16.458;2022-07-26T09:35:21;5.20;;;2.20;;
69310;SDS011;56430;48.154;16.458;2022-07-26T09:37:48;4.73;;;2.30;;
69310;SDS011;56430;48.154;16.458;2022-07-26T09:40:16;5.30;;;2.30;;
69310;SDS011;56430;48.154;16.458;2022-07-26T09:42:53;3.67;;;1.80;;
69310;SDS011;56430;48.154;16.458;2022-07-26T09:45:20;4.55;;;2.13;;
69310;SDS011;56430;48.154;16.458;2022-07-26T09:47:47;4.35;;;2.10;;
69310;SDS011;56430;48.154;16.458;2022-07-26T09:50:15;4.97;;;2.08;;
69310;SDS011;56430;48.154;16.458;2022-07-26T09:53:02;4.30;;;2.30;;
69310;SDS011;56430;48.154;16.458;2022-07-26T09:55:34;4.53;;;2.35;;
69310;SDS011;56430;48.154;16.458;2022-07-26T09:58:03;4.13;;;2.20;;
69310;SDS011;56430;48.154;16.458;2022-07-26T10:00:31;4.70;;;2.00;;
69310;SDS011;56430;48.154;16.458;2022-07-26T10:03:00;3.93;;;1.90;;
69310;SDS011;56430;48.154;16.458;2022-07-26T10:05:27;4.20;;;2.40;;
69310;SDS011;56430;48.154;16.458;2022-07-26T10:07:54;3.65;;;1.90;;
69310;SDS011;56430;48.154;16.458;2022-07-26T10:10:24;4.63;;;2.00;;
69310;SDS011;56430;48.154;16.458;2022-07-26T10:12:53;4.72;;;2.30;;
69310;SDS011;56430;48.154;16.458;2022-07-26T10:18:03;4.85;;;1.92;;
69310;SDS011;56430;48.154;16.458;2022-07-26T10:20:37;4.18;;;2.00;;
69310;SDS011;56430;48.154;16.458;2022-07-26T10:23:05;4.38;;;1.92;;
69310;SDS011;56430;48.154;16.458;2022-07-26T10:25:51;4.10;;;2.20;;
69310;SDS011;56430;48.154;16.458;2022-07-26T10:28:21;4.63;;;2.20;;
69310;SDS011;56430;48.154;16.458;2022-07-26T10:30:49;4.47;;;2.40;;
69310;SDS011;56430;48.154;16.458;2022-07-26T10:33:17;3.40;;;1.83;;
69310;SDS011;56430;48.154;16.458;2022-07-26T10:35:45;3.80;;;2.20;;
69310;SDS011;56430;48.154;16.458;2022-07-26T10:38:13;3.80;;;2.22;;
69310;SDS011;56430;48.154;16.458;2022-07-26T10:40:54;5.10;;;2.30;;
69310;SDS011;56430;48.154;16.458;2022-07-26T10:43:22;4.10;;;2.50;;
69310;SDS011;56430;48.154;16.458;2022-07-26T10:45:49;5.18;;;2.63;;
69310;SDS011;56430;48.154;16.458;2022-07-26T10:48:20;3.83;;;2.25;;
69310;SDS011;56430;48.154;16.458;2022-07-26T10:50:50;4.20;;;2.20;;
69310;SDS011;56430;48.154;16.458;2022-07-26T10:53:17;4.60;;;2.40;;
69310;SDS011;56430;48.154;16.458;2022-07-26T10:55:45;4.60;;;2.23;;
69310;SDS011;56430;48.154;16.458;2022-07-26T10:58:12;5.32;;;2.75;;
69310;SDS011;56430;48.154;16.458;2022-07-26T11:00:39;4.93;;;2.70;;
69310;SDS011;56430;48.154;16.458;2022-07-26T11:03:06;4.22;;;2.50;;
69310;SDS011;56430;48.154;16.458;2022-07-26T11:05:34;5.97;;;2.63;;
69310;SDS011;56430;48.154;16.458;2022-07-26T11:08:02;5.55;;;3.00;;
69310;SDS011;56430;48.154;16.458;2022-07-26T11:10:36;7.55;;;3.25;;
69310;SDS011;56430;48.154;16.458;2022-07-26T11:13:06;4.72;;;2.95;;
69310;SDS011;56430;48.154;16.458;2022-07-26T11:15:34;5.65;;;3.47;;
69310;SDS011;56430;48.154;16.458;2022-07-26T11:18:05;6.27;;;3.17;;
69310;SDS011;56430;48.154;16.458;2022-07-26T11:20:32;6.53;;;3.47;;
69310;SDS011;56430;48.154;16.458;2022-07-26T11:23:00;7.55;;;2.80;;
69310;SDS011;56430;48.154;16.458;2022-07-26T11:25:27;6.15;;;3.38;;
69310;SDS011;56430;48.154;16.458;2022-07-26T11:27:58;5.95;;;3.33;;
69310;SDS011;56430;48.154;16.458;2022-07-26T11:30:25;6.28;;;3.05;;
69310;SDS011;56430;48.154;16.458;2022-07-26T11:32:52;6.07;;;3.35;;
69310;SDS011;56430;48.154;16.458;2022-07-26T11:35:18;6.45;;;3.20;;
69310;SDS011;56430;48.154;16.458;2022-07-26T11:37:50;7.88;;;2.95;;
69310;SDS011;56430;48.154;16.458;2022-07-26T11:40:19;6.00;;;3.50;;
69310;SDS011;56430;48.154;16.458;2022-07-26T11:43:05;5.70;;;3.10;;
69310;SDS011;56430;48.154;16.458;2022-07-26T11:45:32;4.67;;;3.30;;
69310;SDS011;56430;48.154;16.458;2022-07-26T11:47:59;6.90;;;3.63;;
69310;SDS011;56430;48.154;16.458;2022-07-26T11:50:26;9.05;;;3.30;;
69310;SDS011;56430;48.154;16.458;2022-07-26T11:52:53;6.75;;;3.50;;
69310;SDS011;56430;48.154;16.458;2022-07-26T11:55:30;7.55;;;3.97;;
69310;SDS011;56430;48.154;16.458;2022-07-26T11:58:02;22.10;;;4.68;;
69310;SDS011;56430;48.154;16.458;2022-07-26T12:00:30;7.28;;;3.60;;
69310;SDS011;56430;48.154;16.458;2022-07-26T12:02:56;7.32;;;3.72;;
69310;SDS011;56430;48.154;16.458;2022-07-26T12:05:23;6.50;;;3.80;;
69310;SDS011;56430;48.154;16.458;2022-07-26T12:07:57;6.67;;;3.67;;
69310;SDS011;56430;48.154;16.458;2022-07-26T12:10:24;11.90;;;4.70;;
69310;SDS011;56430;48.154;16.458;2022-07-26T12:13:11;6.38;;;3.38;;
69310;SDS011;56430;48.154;16.458;2022-07-26T12:15:45;8.68;;;3.88;;
69310;SDS011;56430;48.154;16.458;2022-07-26T12:18:19;7.80;;;4.10;;
69310;SDS011;56430;48.154;16.458;2022-07-26T12:20:55;6.32;;;4.03;;
69310;SDS011;56430;48.154;16.458;2022-07-26T12:23:22;7.00;;;3.63;;
69310;SDS011;56430;48.154;16.458;2022-07-26T12:25:48;5.82;;;4.13;;
69310;SDS011;56430;48.154;16.458;2022-07-26T12:28:17;7.00;;;3.67;;
69310;SDS011;56430;48.154;16.458;2022-07-26T12:34:06;7.60;;;3.63;;
69310;SDS011;56430;48.154;16.458;2022-07-26T12:36:33;6.60;;;3.70;;
69310;SDS011;56430;48.154;16.458;2022-07-26T12:39:02;10.52;;;4.68;;
69310;SDS011;56430;48.154;16.458;2022-07-26T12:41:33;5.82;;;2.95;;
69310;SDS011;56430;48.154;16.458;2022-07-26T12:44:01;5.93;;;3.42;;
69310;SDS011;56430;48.154;16.458;2022-07-26T12:46:30;8.20;;;4.10;;
69310;SDS011;56430;48.154;16.458;2022-07-26T12:48:57;8.80;;;4.93;;
69310;SDS011;56430;48.154;16.458;2022-07-26T12:51:23;6.07;;;4.28;;
69310;SDS011;56430;48.154;16.458;2022-07-26T12:53:50;7.47;;;4.05;;
69310;SDS011;56430;48.154;16.458;2022-07-26T12:56:17;6.13;;;3.65;;
69310;SDS011;56430;48.154;16.458;2022-07-26T12:58:44;7.50;;;4.57;;
69310;SDS011;56430;48.154;16.458;2022-07-26T13:01:12;11.17;;;5.40;;
69310;SDS011;56430;48.154;16.458;2022-07-26T13:03:39;12.90;;;5.60;;
69310;SDS011;56430;48.154;16.458;2022-07-26T13:06:06;13.15;;;6.07;;
69310;SDS011;56430;48.154;16.458;2022-07-26T13:08:33;13.30;;;5.88;;
69310;SDS011;56430;48.154;16.458;2022-07-26T13:11:00;8.98;;;5.05;;
69310;SDS011;56430;48.154;16.458;2022-07-26T13:13:27;10.15;;;5.97;;
69310;SDS011;56430;48.154;16.458;2022-07-26T13:15:54;15.20;;;5.97;;
69310;SDS011;56430;48.154;16.458;2022-07-26T13:18:22;15.18;;;6.68;;
69310;SDS011;56430;48.154;16.458;2022-07-26T13:20:49;16.13;;;7.35;;
69310;SDS011;56430;48.154;16.458;2022-07-26T13:23:15;14.30;;;8.97;;
69310;SDS011;56430;48.154;16.458;2022-07-26T13:25:42;16.87;;;10.00;;
69310;SDS011;56430;48.154;16.458;2022-07-26T13:28:09;18.83;;;10.50;;
69310;SDS011;56430;48.154;16.458;2022-07-26T13:30:36;20.85;;;11.02;;
69310;SDS011;56430;48.154;16.458;2022-07-26T13:33:07;18.10;;;10.80;;
69310;SDS011;56430;48.154;16.458;2022-07-26T13:35:35;20.25;;;12.02;;
69310;SDS011;56430;48.154;16.458;2022-07-26T13:38:04;20.60;;;12.18;;
69310;SDS011;56430;48.154;16.458;2022-07-26T13:40:30;20.75;;;12.50;;
69310;SDS011;56430;48.154;16.458;2022-07-26T13:42:57;21.63;;;13.00;;
69310;SDS011;56430;48.154;16.458;2022-07-26T13:45:24;18.08;;;12.38;;
69310;SDS011;56430;48.154;16.458;2022-07-26T13:47:51;22.07;;;13.37;;
69310;SDS011;56430;48.154;16.458;2022-07-26T13:50:18;22.60;;;13.70;;
69310;SDS011;56430;48.154;16.458;2022-07-26T13:52:46;20.00;;;13.90;;
69310;SDS011;56430;48.154;16.458;2022-07-26T13:55:13;22.40;;;14.02;;
69310;SDS011;56430;48.154;16.458;2022-07-26T13:57:43;22.13;;;14.45;;
69310;SDS011;56430;48.154;16.458;2022-07-26T14:00:10;19.13;;;13.90;;
69310;SDS011;56430;48.154;16.458;2022-07-26T14:02:39;25.40;;;14.25;;
69310;SDS011;56430;48.154;16.458;2022-07-26T14:05:09;21.88;;;14.15;;
69310;SDS011;56430;48.154;16.458;2022-07-26T14:07:36;20.73;;;14.90;;
69310;SDS011;56430;48.154;16.458;2022-07-26T14:10:05;22.35;;;14.63;;
69310;SDS011;56430;48.154;16.458;2022-07-26T14:12:32;22.37;;;14.37;;
69310;SDS011;56430;48.154;16.458;2022-07-26T14:14:59;19.83;;;14.10;;
69310;SDS011;56430;48.154;16.458;2022-07-26T14:17:25;22.00;;;15.02;;
69310;SDS011;56430;48.154;16.458;2022-07-26T14:19:52;24.33;;;15.60;;
69310;SDS011;56430;48.154;16.458;2022-07-26T14:22:19;23.60;;;15.63;;
69310;SDS011;56430;48.154;16.458;2022-07-26T14:24:46;21.45;;;15.02;;
69310;SDS011;56430;48.154;16.458;2022-07-26T14:27:14;21.13;;;14.95;;
69310;SDS011;56430;48.154;16.458;2022-07-26T14:29:41;24.23;;;16.25;;
69310;SDS011;56430;48.154;16.458;2022-07-26T14:32:08;21.25;;;15.45;;
69310;SDS011;56430;48.154;16.458;2022-07-26T14:34:34;23.35;;;16.48;;
69310;SDS011;56430;48.154;16.458;2022-07-26T14:37:01;22.90;;;16.43;;
69310;SDS011;56430;48.154;16.458;2022-07-26T14:39:28;23.83;;;15.70;;
69310;SDS011;56430;48.154;16.458;2022-07-26T14:41:55;21.20;;;15.00;;
69310;SDS011;56430;48.154;16.458;2022-07-26T14:44:23;20.75;;;14.90;;